Time;durP1;ratioP1;P1;durP2;ratioP2;P2;SDS_P1;SDS_P2;PMS_P1;PMS_P2;Temp;Humidity;BMP_temperature;BMP_pressure;BME280_temperature;BME280_humidity;BME280_pressure;Samples;Min_cycle;Max_cycle;Signal;HPM_P1;HPM_P2
2024/03/03 00:01:59;;;;;;;29.83;22.93;;;8.90;60.20;;;;;;4980071;28;20229;-59
2024/03/03 00:04:25;;;;;;;30.77;22.17;;;8.80;60.20;;;;;;4969547;28;20704;-59
2024/03/03 00:06:52;;;;;;;32.50;22.57;;;8.90;60.20;;;;;;4975424;28;20210;-58
2024/03/03 00:09:20;;;;;;;31.87;21.73;;;8.60;60.90;;;;;;4971818;28;20232;-59
2024/03/03 00:11:47;;;;;;;29.57;21.27;;;8.80;60.80;;;;;;4980190;28;20259;-58
2024/03/03 00:14:14;;;;;;;27.77;21.23;;;8.80;60.20;;;;;;4971653;28;20294;-58
2024/03/03 00:16:41;;;;;;;32.90;22.87;;;8.70;60.90;;;;;;4974672;28;20221;-59
2024/03/03 00:19:07;;;;;;;30.67;21.30;;;8.70;60.20;;;;;;4972152;28;20211;-58
2024/03/03 00:21:34;;;;;;;27.57;21.03;;;8.80;60.70;;;;;;4979768;28;20779;-58
2024/03/03 00:24:01;;;;;;;31.93;21.03;;;8.80;60.30;;;;;;4972133;28;20262;-58
2024/03/03 00:26:27;;;;;;;30.60;21.53;;;8.80;60.20;;;;;;4972584;28;20213;-58
2024/03/03 00:28:54;;;;;;;34.37;23.03;;;8.60;60.70;;;;;;4972250;28;20237;-59
2024/03/03 00:31:20;;;;;;;29.23;22.03;;;8.60;60.50;;;;;;4980162;28;20231;-58
2024/03/03 00:33:47;;;;;;;28.67;21.10;;;8.50;60.80;;;;;;4972360;28;20212;-58
2024/03/03 00:36:13;;;;;;;31.77;22.30;;;8.40;60.80;;;;;;4970005;28;20252;-58
2024/03/03 00:38:40;;;;;;;31.17;22.37;;;8.50;61.00;;;;;;4968283;28;20257;-55
2024/03/03 00:41:06;;;;;;;28.67;20.87;;;8.50;60.70;;;;;;4973368;28;20574;-58
2024/03/03 00:43:33;;;;;;;33.23;22.20;;;8.50;60.40;;;;;;4979804;28;20263;-58
2024/03/03 00:46:00;;;;;;;28.03;20.87;;;8.60;60.10;;;;;;4969757;28;20220;-58
2024/03/03 00:48:26;;;;;;;29.10;21.17;;;8.50;60.30;;;;;;4978455;28;20225;-57
2024/03/03 00:50:53;;;;;;;28.27;20.50;;;8.50;60.70;;;;;;4976857;28;20213;-58
2024/03/03 00:53:20;;;;;;;29.37;21.53;;;8.40;60.40;;;;;;4977495;28;20236;-58
2024/03/03 00:55:48;;;;;;;29.03;21.50;;;8.50;60.40;;;;;;4979870;28;20219;-59
2024/03/03 00:58:14;;;;;;;28.87;20.33;;;8.60;60.10;;;;;;4979687;28;20232;-58
2024/03/03 01:00:41;;;;;;;27.97;20.83;;;8.60;59.60;;;;;;4978779;28;20267;-58
2024/03/03 01:03:08;;;;;;;27.13;19.83;;;8.40;59.90;;;;;;4979247;28;20231;-58
2024/03/03 01:05:34;;;;;;;26.63;19.67;;;8.50;59.90;;;;;;4968362;28;20272;-58
2024/03/03 01:08:01;;;;;;;26.83;19.23;;;8.40;60.10;;;;;;4979677;28;20650;-59
2024/03/03 01:10:27;;;;;;;26.70;20.80;;;8.50;59.90;;;;;;4971960;28;20212;-59
2024/03/03 01:12:54;;;;;;;28.30;20.13;;;8.30;59.40;;;;;;4979961;28;20598;-58
2024/03/03 01:15:20;;;;;;;26.53;19.73;;;8.30;59.70;;;;;;4977871;28;20673;-59
2024/03/03 01:17:47;;;;;;;28.93;20.57;;;8.10;59.90;;;;;;4977431;28;20241;-59
2024/03/03 01:20:13;;;;;;;27.87;20.33;;;8.20;60.00;;;;;;4971110;28;20600;-59
2024/03/03 01:22:40;;;;;;;25.23;19.07;;;8.20;59.70;;;;;;4975763;28;20666;-59
2024/03/03 01:25:07;;;;;;;30.83;20.70;;;8.20;59.70;;;;;;4969538;28;20276;-58
2024/03/03 01:27:33;;;;;;;24.73;17.97;;;8.10;59.50;;;;;;4981026;28;20299;-59
2024/03/03 01:30:00;;;;;;;27.80;19.77;;;8.10;59.50;;;;;;4972798;28;20255;-59
2024/03/03 01:32:27;;;;;;;24.90;18.43;;;8.00;59.40;;;;;;4980268;28;20228;-60
2024/03/03 01:34:54;;;;;;;21.97;17.23;;;8.20;59.50;;;;;;4980229;28;20734;-59
2024/03/03 01:37:20;;;;;;;24.90;18.57;;;8.30;58.50;;;;;;4970705;28;20216;-59
2024/03/03 01:39:47;;;;;;;20.20;16.70;;;8.10;58.40;;;;;;4970773;28;20212;-59
2024/03/03 01:42:13;;;;;;;24.73;16.83;;;8.10;58.80;;;;;;4972612;28;20229;-60
2024/03/03 01:44:40;;;;;;;20.87;16.60;;;8.10;58.00;;;;;;4981963;28;20262;-59
2024/03/03 01:47:06;;;;;;;26.20;17.60;;;8.20;57.60;;;;;;4978516;28;20715;-58
2024/03/03 01:49:33;;;;;;;25.33;16.87;;;8.10;57.30;;;;;;4968861;28;20276;-60
2024/03/03 01:52:00;;;;;;;21.97;18.10;;;8.00;57.20;;;;;;4978437;28;20225;-59
2024/03/03 01:54:27;;;;;;;18.80;15.20;;;8.00;57.70;;;;;;4971285;28;20213;-60
2024/03/03 01:56:53;;;;;;;22.47;15.47;;;8.10;57.30;;;;;;4977564;28;20271;-60
2024/03/03 01:59:20;;;;;;;22.70;16.57;;;7.90;57.30;;;;;;4979292;28;20216;-58
2024/03/03 02:01:46;;;;;;;22.70;16.23;;;7.80;57.50;;;;;;4972977;28;20735;-59
2024/03/03 02:04:12;;;;;;;22.87;17.03;;;7.90;58.00;;;;;;4968883;28;20205;-59
2024/03/03 02:06:39;;;;;;;24.37;17.07;;;8.10;57.30;;;;;;4977123;28;20204;-59
2024/03/03 02:09:06;;;;;;;22.40;16.20;;;7.90;57.10;;;;;;4977922;28;20260;-59
2024/03/03 02:11:33;;;;;;;19.63;15.10;;;7.90;57.70;;;;;;4971875;28;20236;-59
2024/03/03 02:13:59;;;;;;;21.63;15.80;;;8.10;57.10;;;;;;4970915;28;20212;-59
2024/03/03 02:16:26;;;;;;;20.67;15.60;;;7.90;57.10;;;;;;4968432;28;20209;-58
2024/03/03 02:18:52;;;;;;;21.57;16.00;;;8.10;56.60;;;;;;4978851;28;20580;-58
2024/03/03 02:21:19;;;;;;;22.27;16.13;;;7.90;57.10;;;;;;4962574;28;20236;-59
2024/03/03 02:23:45;;;;;;;21.13;15.73;;;7.90;57.10;;;;;;4977858;28;20215;-59
2024/03/03 02:26:12;;;;;;;20.60;15.40;;;8.00;56.30;;;;;;4978792;28;20212;-58
2024/03/03 02:28:40;;;;;;;18.93;16.00;;;8.10;56.50;;;;;;4978519;28;20220;-58
2024/03/03 02:31:07;;;;;;;21.23;15.47;;;8.00;56.20;;;;;;4969252;28;20279;-59
2024/03/03 02:33:34;;;;;;;19.93;14.90;;;7.90;56.70;;;;;;4967657;28;20391;-58
2024/03/03 02:36:00;;;;;;;18.67;15.47;;;7.90;56.50;;;;;;4978509;28;20208;-59
2024/03/03 02:38:27;;;;;;;22.27;16.17;;;7.80;56.70;;;;;;4967911;28;20260;-58
2024/03/03 02:40:53;;;;;;;21.30;14.97;;;7.80;56.30;;;;;;4967646;28;20680;-59
2024/03/03 02:43:20;;;;;;;18.87;15.20;;;7.80;56.10;;;;;;4976014;28;20239;-59
2024/03/03 02:45:47;;;;;;;20.70;15.80;;;7.70;56.30;;;;;;4970180;28;20691;-58
2024/03/03 02:48:13;;;;;;;21.90;16.03;;;7.70;56.60;;;;;;4968616;28;20251;-59
2024/03/03 02:50:40;;;;;;;20.33;15.23;;;7.60;56.50;;;;;;4968983;28;20213;-59
2024/03/03 02:53:06;;;;;;;19.90;14.43;;;7.40;57.00;;;;;;4978029;28;20290;-57
2024/03/03 02:55:33;;;;;;;18.67;14.30;;;7.60;56.90;;;;;;4974211;28;20635;-57
2024/03/03 02:57:59;;;;;;;17.83;14.00;;;7.50;56.80;;;;;;4974568;28;20224;-59
2024/03/03 03:00:26;;;;;;;21.77;13.87;;;7.70;56.60;;;;;;4967203;28;20594;-59
2024/03/03 03:02:52;;;;;;;18.10;14.03;;;7.80;56.40;;;;;;4967137;28;20235;-59
2024/03/03 03:05:19;;;;;;;19.20;14.27;;;7.90;55.60;;;;;;4967093;28;20212;-59
2024/03/03 03:07:45;;;;;;;20.27;14.47;;;7.80;55.60;;;;;;4967529;28;20200;-57
2024/03/03 03:10:12;;;;;;;21.07;15.27;;;7.80;56.10;;;;;;4968914;28;20283;-59
2024/03/03 03:12:38;;;;;;;19.43;14.07;;;7.60;56.00;;;;;;4972278;28;20224;-57
2024/03/03 03:15:05;;;;;;;18.13;14.10;;;7.60;56.50;;;;;;4978344;28;20629;-58
2024/03/03 03:17:32;;;;;;;17.57;13.60;;;7.60;56.30;;;;;;4971572;28;20220;-59
2024/03/03 03:19:59;;;;;;;18.37;14.60;;;7.40;56.70;;;;;;4970469;28;20235;-58
2024/03/03 03:22:25;;;;;;;18.93;13.73;;;7.30;56.60;;;;;;4967995;28;20227;-53
2024/03/03 03:24:53;;;;;;;17.83;13.27;;;7.20;57.30;;;;;;4973452;28;20837;-57
2024/03/03 03:27:20;;;;;;;18.27;13.47;;;7.30;56.80;;;;;;4967061;28;20224;-57
2024/03/03 03:29:46;;;;;;;21.27;13.70;;;7.40;56.70;;;;;;4971733;28;20216;-58
2024/03/03 03:32:13;;;;;;;17.70;13.57;;;7.40;56.70;;;;;;4969671;28;20278;-56
2024/03/03 03:34:39;;;;;;;16.97;12.73;;;7.30;56.60;;;;;;4976950;28;20205;-58
2024/03/03 03:37:06;;;;;;;17.47;13.23;;;7.30;56.60;;;;;;4971380;28;20212;-58
2024/03/03 03:39:32;;;;;;;19.07;13.37;;;7.50;56.60;;;;;;4974162;28;20269;-58
2024/03/03 03:41:59;;;;;;;17.73;12.57;;;7.50;56.10;;;;;;4966230;28;20271;-59
2024/03/03 03:44:25;;;;;;;17.77;13.10;;;7.50;55.90;;;;;;4969587;28;20635;-57
2024/03/03 03:46:53;;;;;;;16.70;13.00;;;7.50;55.80;;;;;;4977977;28;20208;-57
2024/03/03 03:49:19;;;;;;;15.20;11.60;;;7.50;55.70;;;;;;4967237;28;20251;-59
2024/03/03 03:51:47;;;;;;;15.70;11.63;;;7.50;56.00;;;;;;4970105;28;20235;-57
2024/03/03 03:54:13;;;;;;;12.80;10.43;;;7.50;55.20;;;;;;4978437;28;20200;-59
2024/03/03 03:56:40;;;;;;;14.37;11.53;;;7.60;54.60;;;;;;4976884;28;20209;-59
2024/03/03 03:59:06;;;;;;;12.60;10.90;;;7.40;54.70;;;;;;4970549;28;20246;-59
2024/03/03 04:01:33;;;;;;;13.40;11.27;;;7.50;55.30;;;;;;4971471;28;20231;-59
2024/03/03 04:03:59;;;;;;;13.67;11.00;;;7.50;54.80;;;;;;4978590;28;20638;-59
2024/03/03 04:06:26;;;;;;;13.63;10.97;;;7.40;54.80;;;;;;4968201;28;20208;-55
2024/03/03 04:08:52;;;;;;;14.33;11.00;;;7.30;54.70;;;;;;4968640;28;20229;-58
2024/03/03 04:11:19;;;;;;;14.37;10.43;;;7.30;55.10;;;;;;4976198;28;20263;-59
2024/03/03 04:13:46;;;;;;;13.70;10.60;;;7.20;55.70;;;;;;4968863;28;20207;-58
2024/03/03 04:16:12;;;;;;;13.90;10.43;;;7.10;55.20;;;;;;4977791;28;20845;-59
2024/03/03 04:18:39;;;;;;;13.37;10.70;;;7.20;55.10;;;;;;4968129;28;20204;-58
2024/03/03 04:21:05;;;;;;;13.63;10.60;;;7.30;54.50;;;;;;4976116;28;20274;-57
2024/03/03 04:23:32;;;;;;;15.13;11.27;;;7.30;54.90;;;;;;4975286;28;20208;-59
2024/03/03 04:25:58;;;;;;;13.83;10.40;;;7.30;54.40;;;;;;4971935;28;20267;-58
2024/03/03 04:28:25;;;;;;;12.77;10.30;;;7.40;54.40;;;;;;4971666;28;20216;-58
2024/03/03 04:30:51;;;;;;;12.77;10.73;;;7.40;54.40;;;;;;4982970;28;20258;-59
2024/03/03 04:33:18;;;;;;;16.17;11.40;;;7.30;54.90;;;;;;4982130;28;20311;-60
2024/03/03 04:35:44;;;;;;;13.03;10.57;;;7.40;54.30;;;;;;4976947;28;20272;-60
2024/03/03 04:38:11;;;;;;;12.30;9.97;;;7.40;54.50;;;;;;4979901;28;20266;-59
2024/03/03 04:40:37;;;;;;;13.83;10.80;;;7.50;54.20;;;;;;4978117;28;20209;-59
2024/03/03 04:43:04;;;;;;;14.00;11.70;;;7.30;54.30;;;;;;4980394;28;20310;-60
2024/03/03 04:45:31;;;;;;;14.13;10.13;;;7.20;54.70;;;;;;4975435;28;20208;-59
2024/03/03 04:47:57;;;;;;;14.57;10.63;;;7.00;55.20;;;;;;4983437;28;20212;-59
2024/03/03 04:50:24;;;;;;;13.73;10.60;;;7.00;55.70;;;;;;4975246;28;20644;-60
2024/03/03 04:52:50;;;;;;;13.70;10.33;;;6.90;56.30;;;;;;4983001;28;20259;-59
2024/03/03 04:55:17;;;;;;;13.23;10.13;;;6.90;56.30;;;;;;4981852;28;20232;-60
2024/03/03 04:57:43;;;;;;;14.20;10.80;;;7.20;55.50;;;;;;4972698;28;20209;-58
2024/03/03 05:00:10;;;;;;;13.47;11.10;;;7.20;55.10;;;;;;4974609;28;20212;-59
2024/03/03 05:02:36;;;;;;;13.60;10.90;;;7.30;54.80;;;;;;4974458;28;20232;-57
2024/03/03 05:05:04;;;;;;;12.83;10.97;;;7.10;55.10;;;;;;4983364;28;20224;-59
2024/03/03 05:07:30;;;;;;;13.30;10.57;;;6.80;56.20;;;;;;4972350;28;20274;-59
2024/03/03 05:09:57;;;;;;;14.13;10.97;;;6.80;56.20;;;;;;4979172;28;20228;-59
2024/03/03 05:12:23;;;;;;;12.57;11.13;;;6.90;56.30;;;;;;4972947;28;20723;-59
2024/03/03 05:14:50;;;;;;;13.60;10.40;;;7.00;55.90;;;;;;4979218;28;20208;-58
2024/03/03 05:17:16;;;;;;;13.73;10.20;;;7.10;55.20;;;;;;4983770;28;20207;-59
2024/03/03 05:19:43;;;;;;;11.30;9.93;;;7.00;55.00;;;;;;4979321;28;20208;-60
2024/03/03 05:22:10;;;;;;;13.10;10.23;;;7.20;54.60;;;;;;4974930;28;20228;-59
2024/03/03 05:24:36;;;;;;;11.77;9.63;;;6.90;55.20;;;;;;4979407;28;20258;-60
2024/03/03 05:27:03;;;;;;;14.07;11.00;;;7.00;55.00;;;;;;4973518;28;20209;-59
2024/03/03 05:29:29;;;;;;;12.20;9.37;;;7.20;55.00;;;;;;4977400;28;20255;-58
2024/03/03 05:31:56;;;;;;;13.57;9.63;;;7.20;54.20;;;;;;4983544;28;20220;-59
2024/03/03 05:34:22;;;;;;;12.20;9.20;;;7.10;54.20;;;;;;4983974;28;20215;-58
2024/03/03 05:36:49;;;;;;;11.13;9.13;;;7.10;54.50;;;;;;4975536;28;20212;-59
2024/03/03 05:39:16;;;;;;;11.23;9.47;;;7.10;53.90;;;;;;4977559;28;20204;-59
2024/03/03 05:41:42;;;;;;;11.20;8.70;;;7.30;53.60;;;;;;4977059;28;20242;-59
2024/03/03 05:44:09;;;;;;;13.27;9.90;;;7.40;53.30;;;;;;4972985;28;20209;-59
2024/03/03 05:46:35;;;;;;;10.77;8.83;;;7.20;53.40;;;;;;4975690;28;20216;-58
2024/03/03 05:49:02;;;;;;;9.53;8.20;;;7.10;53.30;;;;;;4974135;28;20261;-58
2024/03/03 05:51:28;;;;;;;9.90;7.73;;;7.00;53.40;;;;;;4983066;28;20238;-58
2024/03/03 05:53:55;;;;;;;10.00;7.97;;;7.00;53.60;;;;;;4985835;28;20216;-58
2024/03/03 05:56:22;;;;;;;8.50;7.60;;;6.90;53.90;;;;;;4978763;28;20675;-59
2024/03/03 05:58:48;;;;;;;9.57;8.03;;;7.00;54.10;;;;;;4983452;28;20211;-58
2024/03/03 06:01:15;;;;;;;11.43;8.57;;;7.00;54.00;;;;;;4975128;28;20236;-59
2024/03/03 06:03:41;;;;;;;10.70;8.77;;;7.20;53.70;;;;;;4977850;28;20216;-59
2024/03/03 06:06:09;;;;;;;9.90;8.07;;;6.90;53.70;;;;;;4974339;28;20212;-58
2024/03/03 06:08:36;;;;;;;9.13;7.90;;;7.00;53.90;;;;;;4975928;28;20216;-59
2024/03/03 06:11:02;;;;;;;9.73;8.10;;;7.10;53.70;;;;;;4982835;28;20232;-59
2024/03/03 06:13:29;;;;;;;10.17;7.30;;;7.20;53.80;;;;;;4972747;28;20207;-58
2024/03/03 06:15:55;;;;;;;8.97;8.07;;;7.20;53.40;;;;;;4972766;28;20255;-59
2024/03/03 06:18:22;;;;;;;8.63;7.00;;;7.30;53.60;;;;;;4979192;28;20515;-58
2024/03/03 06:20:48;;;;;;;10.27;7.73;;;7.30;52.70;;;;;;4983268;28;20212;-58
2024/03/03 06:23:15;;;;;;;9.87;7.53;;;7.20;52.60;;;;;;4972720;28;20233;-59
2024/03/03 06:25:42;;;;;;;8.27;7.47;;;7.40;52.60;;;;;;4974006;28;20808;-59
2024/03/03 06:28:08;;;;;;;7.70;6.67;;;7.50;52.30;;;;;;4982860;28;20258;-59
2024/03/03 06:30:35;;;;;;;7.50;6.70;;;7.30;52.20;;;;;;4983972;28;20232;-59
2024/03/03 06:33:01;;;;;;;9.13;6.87;;;7.30;52.20;;;;;;4975556;28;20587;-59
2024/03/03 06:35:28;;;;;;;7.43;6.70;;;7.50;52.10;;;;;;4972516;28;20205;-56
2024/03/03 06:37:55;;;;;;;8.47;6.77;;;7.50;51.70;;;;;;4977322;28;20239;-58
2024/03/03 06:40:22;;;;;;;7.43;6.30;;;7.60;51.50;;;;;;4983998;28;20204;-59
2024/03/03 06:42:48;;;;;;;8.70;6.63;;;7.70;51.20;;;;;;4976990;28;20665;-59
2024/03/03 06:45:15;;;;;;;6.80;5.80;;;7.70;51.90;;;;;;4977558;28;20203;-59
2024/03/03 06:47:41;;;;;;;7.10;5.40;;;7.80;51.00;;;;;;4982321;28;20234;-58
2024/03/03 06:50:08;;;;;;;5.90;5.30;;;7.70;50.80;;;;;;4982235;28;20278;-59
2024/03/03 06:52:34;;;;;;;6.80;6.10;;;7.70;51.00;;;;;;4974106;28;20285;-59
2024/03/03 06:55:00;;;;;;;5.07;4.57;;;7.80;50.70;;;;;;4975200;28;20568;-59
2024/03/03 06:57:27;;;;;;;5.27;4.77;;;7.80;50.20;;;;;;4978510;28;20208;-58
2024/03/03 06:59:54;;;;;;;5.63;5.03;;;7.80;50.40;;;;;;4972560;28;20205;-58
2024/03/03 07:02:20;;;;;;;5.20;4.13;;;7.80;50.50;;;;;;4972574;28;20291;-58
2024/03/03 07:04:47;;;;;;;3.13;2.87;;;7.90;49.50;;;;;;4977844;28;20226;-59
2024/03/03 07:07:13;;;;;;;3.73;3.43;;;8.10;48.40;;;;;;4971048;28;20247;-59
2024/03/03 07:09:40;;;;;;;2.57;2.40;;;8.20;48.50;;;;;;4977106;28;20231;-59
2024/03/03 07:12:07;;;;;;;2.73;2.53;;;8.30;47.40;;;;;;4978177;28;20228;-60
2024/03/03 07:14:36;;;;;;;3.17;2.87;;;8.30;47.10;;;;;;4975230;28;20216;-59
2024/03/03 07:17:02;;;;;;;2.37;2.17;;;8.30;47.30;;;;;;4973787;28;20209;-59
2024/03/03 07:19:29;;;;;;;2.43;2.23;;;8.30;46.90;;;;;;4978820;28;20214;-60
2024/03/03 07:21:55;;;;;;;2.17;2.07;;;8.50;47.00;;;;;;4964585;28;20229;-59
2024/03/03 07:24:23;;;;;;;2.57;2.10;;;8.60;47.00;;;;;;4974615;28;20211;-59
2024/03/03 07:26:50;;;;;;;1.77;1.67;;;8.60;45.80;;;;;;4980200;28;20212;-59
2024/03/03 07:29:16;;;;;;;2.80;1.70;;;8.40;45.90;;;;;;4971616;28;20263;-59
2024/03/03 07:31:43;;;;;;;2.20;2.00;;;8.50;46.70;;;;;;4973642;28;20325;-59
2024/03/03 07:34:09;;;;;;;2.10;1.90;;;8.60;45.80;;;;;;4966815;28;20267;-60
2024/03/03 07:36:36;;;;;;;2.10;2.00;;;8.70;46.60;;;;;;4977138;28;20320;-59
2024/03/03 07:39:04;;;;;;;2.13;1.93;;;8.90;46.20;;;;;;4975154;28;20235;-60
2024/03/03 07:41:31;;;;;;;1.83;1.60;;;8.90;45.70;;;;;;4969872;28;20216;-58
2024/03/03 07:43:57;;;;;;;2.10;2.00;;;9.10;44.70;;;;;;4967061;28;20290;-57
2024/03/03 07:46:24;;;;;;;3.37;1.87;;;9.00;45.00;;;;;;4975893;28;20248;-59
2024/03/03 07:48:52;;;;;;;2.20;2.10;;;9.10;44.70;;;;;;4965071;28;20766;-59
2024/03/03 07:51:21;;;;;;;2.10;1.90;;;9.20;44.80;;;;;;4965734;28;20232;-59
2024/03/03 07:53:48;;;;;;;1.87;1.60;;;9.30;45.50;;;;;;4970482;28;20213;-58
2024/03/03 07:56:14;;;;;;;2.20;2.00;;;9.40;44.10;;;;;;4973167;28;20204;-58
2024/03/03 07:58:41;;;;;;;1.80;1.70;;;9.50;44.40;;;;;;4970993;28;20209;-59
2024/03/03 08:01:07;;;;;;;1.80;1.70;;;9.60;43.10;;;;;;4968540;28;20205;-59
2024/03/03 08:03:34;;;;;;;1.70;1.60;;;9.70;43.20;;;;;;4974838;28;20269;-59
2024/03/03 08:06:00;;;;;;;2.00;1.80;;;9.80;43.50;;;;;;4966466;28;20305;-58
2024/03/03 08:08:27;;;;;;;2.03;1.60;;;9.80;44.20;;;;;;4980137;28;20364;-59
2024/03/03 08:10:53;;;;;;;1.60;1.50;;;9.90;43.80;;;;;;4964731;28;20301;-58
2024/03/03 08:13:20;;;;;;;1.60;1.50;;;10.10;41.70;;;;;;4969891;28;20218;-59
2024/03/03 08:15:46;;;;;;;1.83;1.73;;;10.20;41.40;;;;;;4967288;28;20262;-60
2024/03/03 08:18:13;;;;;;;1.57;1.47;;;10.40;40.50;;;;;;4968729;28;20220;-60
2024/03/03 08:20:39;;;;;;;1.53;1.43;;;10.40;41.30;;;;;;4970100;28;20203;-60
2024/03/03 08:23:06;;;;;;;1.53;1.43;;;10.50;40.30;;;;;;4980209;28;20265;-60
2024/03/03 08:25:33;;;;;;;1.70;1.60;;;10.70;40.50;;;;;;4980368;28;20215;-59
2024/03/03 08:28:02;;;;;;;1.40;1.40;;;10.80;39.30;;;;;;4955293;28;20240;-60
2024/03/03 08:30:29;;;;;;;1.43;1.43;;;10.90;40.10;;;;;;4953909;28;21117;-59
2024/03/03 08:32:55;;;;;;;1.43;1.37;;;11.00;39.30;;;;;;4957030;28;20227;-60
2024/03/03 08:35:22;;;;;;;1.60;1.50;;;11.40;39.50;;;;;;4962516;28;20264;-60
2024/03/03 08:37:48;;;;;;;1.73;1.63;;;11.60;39.60;;;;;;4956054;28;20216;-59
2024/03/03 08:40:17;;;;;;;1.57;1.47;;;11.80;37.80;;;;;;4966152;28;20208;-59
2024/03/03 08:42:43;;;;;;;1.63;1.50;;;11.90;38.50;;;;;;4950212;28;20237;-59
2024/03/03 08:45:10;;;;;;;1.60;1.50;;;12.10;38.30;;;;;;4955416;28;20299;-59
2024/03/03 08:47:36;;;;;;;1.40;1.30;;;12.20;38.20;;;;;;4956826;28;20630;-58
2024/03/03 08:50:04;;;;;;;1.50;1.40;;;12.30;36.00;;;;;;4956304;28;20230;-58
2024/03/03 08:52:30;;;;;;;1.50;1.40;;;12.50;36.50;;;;;;4958772;29;20231;-59
2024/03/03 08:54:57;;;;;;;1.50;1.40;;;12.40;37.30;;;;;;4954834;28;20980;-59
2024/03/03 08:57:23;;;;;;;1.23;1.13;;;12.30;37.00;;;;;;4962026;28;20218;-59
2024/03/03 08:59:50;;;;;;;1.80;1.70;;;12.60;36.00;;;;;;4967369;28;20203;-59
2024/03/03 09:02:16;;;;;;;1.40;1.30;;;12.60;35.00;;;;;;4965382;29;20236;-59
2024/03/03 09:04:43;;;;;;;1.20;1.20;;;12.70;35.60;;;;;;4956253;28;20237;-59
2024/03/03 09:07:10;;;;;;;2.10;1.50;;;12.40;36.80;;;;;;4959445;29;20635;-59
2024/03/03 09:09:36;;;;;;;1.77;1.50;;;12.60;34.20;;;;;;4959938;28;20230;-57
2024/03/03 09:12:09;;;;;;;2.00;1.60;;;12.60;36.20;;;;;;4941846;28;20242;-58
2024/03/03 09:14:36;;;;;;;1.60;1.50;;;12.40;37.40;;;;;;4956534;28;20233;-58
2024/03/03 09:17:02;;;;;;;3.10;1.60;;;12.20;38.60;;;;;;4959148;28;20605;-59
2024/03/03 09:19:29;;;;;;;1.30;1.20;;;12.40;37.30;;;;;;4958116;28;20207;-58
2024/03/03 09:21:55;;;;;;;1.60;1.50;;;13.30;32.30;;;;;;4958624;28;20297;-58
2024/03/03 09:24:24;;;;;;;1.90;1.40;;;13.60;30.50;;;;;;4963237;28;20270;-60
2024/03/03 09:26:50;;;;;;;1.50;1.40;;;13.90;29.90;;;;;;4964802;28;20270;-59
2024/03/03 09:29:18;;;;;;;1.37;1.27;;;13.90;28.80;;;;;;4949709;28;20267;-58
2024/03/03 09:31:44;;;;;;;1.90;1.40;;;14.00;28.30;;;;;;4946422;28;20241;-59
2024/03/03 09:34:11;;;;;;;1.30;1.20;;;14.00;28.80;;;;;;4960830;28;20636;-59
2024/03/03 09:36:37;;;;;;;1.40;1.30;;;14.00;27.90;;;;;;4959970;29;20261;-59
2024/03/03 09:39:05;;;;;;;1.10;1.10;;;14.00;27.30;;;;;;4965991;28;20253;-60
2024/03/03 09:41:31;;;;;;;1.40;1.33;;;14.00;27.50;;;;;;4966359;28;20288;-60
2024/03/03 09:43:58;;;;;;;1.33;1.30;;;13.90;29.80;;;;;;4953802;29;20215;-59
2024/03/03 09:46:27;;;;;;;15.20;2.47;;;13.90;28.90;;;;;;4959761;29;20235;-60
2024/03/03 09:48:53;;;;;;;1.50;1.40;;;14.10;27.50;;;;;;4947005;29;20301;-59
2024/03/03 09:51:20;;;;;;;1.33;1.27;;;14.10;27.90;;;;;;4952314;29;20590;-59
2024/03/03 09:53:46;;;;;;;1.30;1.20;;;14.10;27.70;;;;;;4951683;28;21366;-60
2024/03/03 09:56:13;;;;;;;1.33;1.30;;;14.10;26.00;;;;;;4951089;28;20695;-60
2024/03/03 09:58:39;;;;;;;1.17;1.10;;;14.20;25.90;;;;;;4954695;28;20210;-59
2024/03/03 10:01:06;;;;;;;1.77;1.20;;;14.30;25.90;;;;;;4955933;28;20626;-60
2024/03/03 10:03:33;;;;;;;1.30;1.20;;;14.20;24.80;;;;;;4959461;28;20208;-60
2024/03/03 10:05:59;;;;;;;2.17;1.00;;;14.30;25.50;;;;;;4958947;28;20296;-60
2024/03/03 10:08:26;;;;;;;1.30;1.20;;;14.20;25.20;;;;;;4949178;28;20246;-59
2024/03/03 10:10:52;;;;;;;1.50;1.40;;;14.20;25.30;;;;;;4952916;29;20604;-60
2024/03/03 10:13:20;;;;;;;1.37;1.27;;;14.20;25.20;;;;;;4956939;29;20234;-60
2024/03/03 10:15:47;;;;;;;1.30;1.20;;;14.20;25.90;;;;;;4960258;29;20228;-60
2024/03/03 10:18:14;;;;;;;1.27;1.27;;;14.20;25.50;;;;;;4958133;29;20262;-60
2024/03/03 10:20:41;;;;;;;1.40;1.30;;;14.30;25.90;;;;;;4949263;29;20276;-60
2024/03/03 10:23:07;;;;;;;1.63;1.30;;;14.30;25.20;;;;;;4958318;29;20237;-59
2024/03/03 10:25:34;;;;;;;2.30;1.30;;;14.50;24.60;;;;;;4954118;28;20696;-60
2024/03/03 10:28:00;;;;;;;1.47;1.30;;;14.60;24.90;;;;;;4956137;29;20213;-59
2024/03/03 10:30:27;;;;;;;1.20;1.10;;;14.60;24.70;;;;;;4956542;29;20229;-58
2024/03/03 10:32:54;;;;;;;1.30;1.20;;;14.50;24.30;;;;;;4950681;29;20776;-57
2024/03/03 10:35:21;;;;;;;1.50;1.40;;;14.70;24.70;;;;;;4960003;29;20221;-59
2024/03/03 10:37:48;;;;;;;4.63;1.50;;;14.60;24.70;;;;;;4954025;29;20301;-59
2024/03/03 10:40:15;;;;;;;1.20;1.20;;;14.70;25.30;;;;;;4959067;29;20703;-59
2024/03/03 10:42:42;;;;;;;1.37;1.20;;;14.70;24.60;;;;;;4953077;29;20237;-58
2024/03/03 10:45:09;;;;;;;1.40;1.10;;;14.80;24.40;;;;;;4956979;29;20231;-58
2024/03/03 10:47:35;;;;;;;1.30;1.20;;;14.90;24.00;;;;;;4957831;28;20219;-59
2024/03/03 10:50:05;;;;;;;1.60;1.20;;;15.00;24.10;;;;;;4959184;29;20210;-59
2024/03/03 10:52:31;;;;;;;1.20;1.10;;;15.00;24.50;;;;;;4951905;29;20242;-59
2024/03/03 10:54:58;;;;;;;1.10;1.10;;;14.90;24.30;;;;;;4958695;29;20242;-59
2024/03/03 10:57:26;;;;;;;1.87;1.30;;;14.90;24.40;;;;;;4950672;29;20210;-59
2024/03/03 10:59:53;;;;;;;1.87;1.17;;;15.10;24.10;;;;;;4948352;29;20210;-58
2024/03/03 11:02:19;;;;;;;1.93;1.53;;;15.30;24.50;;;;;;4949643;28;20224;-59
2024/03/03 11:04:46;;;;;;;1.30;1.20;;;15.90;24.00;;;;;;4955633;28;20212;-59
2024/03/03 11:07:12;;;;;;;1.37;1.20;;;15.90;24.20;;;;;;4949752;29;20262;-59
2024/03/03 11:09:39;;;;;;;1.30;1.23;;;15.90;23.90;;;;;;4953683;28;20303;-58
2024/03/03 11:12:06;;;;;;;1.57;1.03;;;15.70;24.20;;;;;;4946224;28;20247;-57
2024/03/03 11:14:32;;;;;;;1.20;1.10;;;15.50;24.20;;;;;;4952583;28;20212;-58
2024/03/03 11:16:59;;;;;;;2.27;1.20;;;15.50;24.40;;;;;;4955685;28;20216;-60
2024/03/03 11:19:25;;;;;;;1.53;1.10;;;15.40;25.00;;;;;;4944117;28;20219;-59
2024/03/03 11:21:52;;;;;;;0.90;0.90;;;15.80;24.40;;;;;;4938678;28;20292;-59
2024/03/03 11:24:18;;;;;;;1.17;1.10;;;16.80;23.40;;;;;;4942103;28;20208;-59
2024/03/03 11:26:46;;;;;;;1.30;1.20;;;16.80;23.30;;;;;;4943198;28;20268;-59
2024/03/03 11:29:13;;;;;;;1.20;1.10;;;17.10;23.50;;;;;;4945725;28;20216;-59
2024/03/03 11:31:40;;;;;;;1.13;0.97;;;18.10;22.60;;;;;;4941420;28;20698;-59
2024/03/03 11:34:07;;;;;;;1.07;1.00;;;18.90;21.30;;;;;;4949206;28;20232;-59
2024/03/03 11:36:34;;;;;;;1.13;1.08;;;19.70;20.30;;;;;;4942801;28;20211;-56
2024/03/03 11:39:02;;;;;;;1.30;1.20;;;20.40;19.70;;;;;;4954712;28;20209;-58
2024/03/03 11:41:29;;;;;;;1.92;1.40;;;19.40;21.30;;;;;;4959796;28;20251;-59
2024/03/03 11:43:55;;;;;;;1.52;1.35;;;19.30;23.50;;;;;;4957462;28;20555;-59
2024/03/03 11:46:22;;;;;;;1.50;1.30;;;19.00;23.40;;;;;;4960585;28;20213;-59
2024/03/03 11:48:48;;;;;;;1.75;1.48;;;18.70;23.80;;;;;;4952697;29;20699;-59
2024/03/03 11:51:15;;;;;;;1.63;1.30;;;19.20;23.00;;;;;;4955251;28;20321;-59
2024/03/03 11:53:44;;;;;;;1.25;1.15;;;19.40;23.40;;;;;;4947454;29;20210;-59
2024/03/03 11:56:10;;;;;;;1.15;1.05;;;20.40;22.40;;;;;;4955990;28;20267;-59
2024/03/03 11:58:37;;;;;;;2.40;1.20;;;21.30;20.90;;;;;;4948318;28;20260;-59
2024/03/03 12:01:03;;;;;;;1.15;1.02;;;22.50;19.80;;;;;;4952474;29;20201;-59
2024/03/03 12:03:30;;;;;;;1.40;1.13;;;22.40;19.80;;;;;;4953883;29;20213;-59
2024/03/03 12:05:56;;;;;;;0.90;0.90;;;21.80;20.20;;;;;;4956757;28;20209;-59
2024/03/03 12:08:23;;;;;;;2.63;1.00;;;22.00;20.10;;;;;;4953630;29;20645;-58
2024/03/03 12:10:49;;;;;;;1.17;1.08;;;22.90;19.50;;;;;;4957604;29;20264;-59
2024/03/03 12:13:16;;;;;;;1.48;1.10;;;22.60;19.50;;;;;;4954283;29;20232;-61
2024/03/03 12:15:43;;;;;;;1.13;0.90;;;23.10;18.40;;;;;;4956116;29;20237;-62
2024/03/03 12:18:11;;;;;;;3.45;1.05;;;23.30;17.10;;;;;;4958874;28;20213;-59
2024/03/03 12:20:40;;;;;;;1.20;1.00;;;21.60;17.90;;;;;;4946445;28;20212;-59
2024/03/03 12:23:07;;;;;;;1.67;1.00;;;20.70;19.30;;;;;;4955338;29;20239;-59
2024/03/03 12:25:33;;;;;;;1.33;1.23;;;20.00;20.10;;;;;;4963891;29;20213;-60
2024/03/03 12:28:00;;;;;;;2.05;1.30;;;20.20;20.10;;;;;;4959873;29;20220;-60
2024/03/03 12:30:27;;;;;;;1.77;1.13;;;20.50;20.10;;;;;;4956367;28;20205;-59
2024/03/03 12:32:53;;;;;;;3.78;1.40;;;20.50;20.10;;;;;;4950163;29;20237;-60
2024/03/03 12:35:20;;;;;;;2.03;1.00;;;20.40;20.40;;;;;;4952257;29;20206;-60
2024/03/03 12:37:46;;;;;;;1.77;1.17;;;20.40;19.80;;;;;;4954923;29;20217;-58
2024/03/03 12:40:13;;;;;;;1.30;1.20;;;20.10;20.70;;;;;;4957395;28;20216;-61
2024/03/03 12:42:40;;;;;;;1.67;0.98;;;21.30;19.70;;;;;;4955931;28;20221;-60